sensor_id;sensor_type;location;lat;lon;timestamp;pressure;altitude;pressure_sealevel;temperature;humidity
59375;BME280;45172;55.006;73.460;2023-05-20T00:01:32;101560.47;;;5.46;72.24
59375;BME280;45172;55.006;73.460;2023-05-20T00:03:58;101566.59;;;5.61;71.19
59375;BME280;45172;55.006;73.460;2023-05-20T00:06:24;101566.56;;;5.76;70.71
59375;BME280;45172;55.006;73.460;2023-05-20T00:08:51;101560.56;;;5.96;69.98
59375;BME280;45172;55.006;73.460;2023-05-20T00:11:17;101561.31;;;6.10;69.76
59375;BME280;45172;55.006;73.460;2023-05-20T00:13:43;101556.03;;;6.26;69.54
59375;BME280;45172;55.006;73.460;2023-05-20T00:16:09;101559.47;;;6.42;68.65
59375;BME280;45172;55.006;73.460;2023-05-20T00:18:35;101568.16;;;6.92;69.20
59375;BME280;45172;55.006;73.460;2023-05-20T00:21:01;101560.19;;;6.91;68.56
59375;BME280;45172;55.006;73.460;2023-05-20T00:23:27;101561.84;;;7.07;68.26
59375;BME280;45172;55.006;73.460;2023-05-20T00:25:53;101559.00;;;7.20;68.18
59375;BME280;45172;55.006;73.460;2023-05-20T00:28:19;101569.75;;;7.43;67.57
59375;BME280;45172;55.006;73.460;2023-05-20T00:30:47;101557.38;;;7.60;67.12
59375;BME280;45172;55.006;73.460;2023-05-20T00:33:13;101566.41;;;7.85;66.62
59375;BME280;45172;55.006;73.460;2023-05-20T00:35:39;101569.22;;;8.08;65.88
59375;BME280;45172;55.006;73.460;2023-05-20T00:38:05;101572.06;;;8.32;65.98
59375;BME280;45172;55.006;73.460;2023-05-20T00:40:31;101571.28;;;8.55;64.59
59375;BME280;45172;55.006;73.460;2023-05-20T00:42:57;101574.09;;;9.00;63.95
59375;BME280;45172;55.006;73.460;2023-05-20T00:45:23;101576.00;;;9.04;63.77
59375;BME280;45172;55.006;73.460;2023-05-20T00:47:50;101577.63;;;9.45;62.92
59375;BME280;45172;55.006;73.460;2023-05-20T00:50:17;101566.06;;;9.43;62.70
59375;BME280;45172;55.006;73.460;2023-05-20T00:52:43;101577.31;;;9.83;61.10
59375;BME280;45172;55.006;73.460;2023-05-20T00:55:09;101570.19;;;10.05;60.19
59375;BME280;45172;55.006;73.460;2023-05-20T00:57:36;101576.16;;;10.23;60.06
59375;BME280;45172;55.006;73.460;2023-05-20T01:00:03;101574.13;;;10.40;59.74
59375;BME280;45172;55.006;73.460;2023-05-20T01:02:30;101574.63;;;10.53;60.06
59375;BME280;45172;55.006;73.460;2023-05-20T01:04:56;101582.78;;;10.59;60.01
59375;BME280;45172;55.006;73.460;2023-05-20T01:07:22;101580.38;;;10.67;59.33
59375;BME280;45172;55.006;73.460;2023-05-20T01:09:50;101587.22;;;10.86;59.24
59375;BME280;45172;55.006;73.460;2023-05-20T01:12:27;101578.78;;;10.98;59.60
59375;BME280;45172;55.006;73.460;2023-05-20T01:15:01;101577.66;;;11.17;58.76
59375;BME280;45172;55.006;73.460;2023-05-20T01:17:30;101577.28;;;11.34;57.91
59375;BME280;45172;55.006;73.460;2023-05-20T01:20:03;101577.88;;;11.53;57.10
59375;BME280;45172;55.006;73.460;2023-05-20T01:22:32;101578.16;;;11.62;56.65
59375;BME280;45172;55.006;73.460;2023-05-20T01:24:58;101570.44;;;11.70;56.17
59375;BME280;45172;55.006;73.460;2023-05-20T01:27:24;101566.34;;;11.81;56.54
59375;BME280;45172;55.006;73.460;2023-05-20T01:29:50;101573.78;;;11.93;56.77
59375;BME280;45172;55.006;73.460;2023-05-20T01:32:28;101568.81;;;12.04;56.18
59375;BME280;45172;55.006;73.460;2023-05-20T01:34:56;101567.34;;;12.14;54.72
59375;BME280;45172;55.006;73.460;2023-05-20T01:37:24;101570.44;;;12.29;54.29
59375;BME280;45172;55.006;73.460;2023-05-20T01:39:53;101572.44;;;12.38;54.28
59375;BME280;45172;55.006;73.460;2023-05-20T01:42:20;101578.13;;;12.52;54.50
59375;BME280;45172;55.006;73.460;2023-05-20T01:44:45;101575.91;;;12.69;53.84
59375;BME280;45172;55.006;73.460;2023-05-20T01:47:12;101577.16;;;12.82;53.21
59375;BME280;45172;55.006;73.460;2023-05-20T01:49:38;101574.88;;;12.98;52.62
59375;BME280;45172;55.006;73.460;2023-05-20T01:52:04;101572.44;;;13.07;52.58
59375;BME280;45172;55.006;73.460;2023-05-20T01:54:31;101569.97;;;13.15;52.25
59375;BME280;45172;55.006;73.460;2023-05-20T01:56:57;101580.16;;;13.33;52.51
59375;BME280;45172;55.006;73.460;2023-05-20T01:59:23;101573.28;;;13.43;51.54
59375;BME280;45172;55.006;73.460;2023-05-20T02:01:49;101570.97;;;13.55;51.50
59375;BME280;45172;55.006;73.460;2023-05-20T02:04:15;101565.97;;;13.71;51.42
59375;BME280;45172;55.006;73.460;2023-05-20T02:06:44;101563.59;;;13.85;51.30
59375;BME280;45172;55.006;73.460;2023-05-20T02:09:10;101562.78;;;13.89;49.97
59375;BME280;45172;55.006;73.460;2023-05-20T02:11:37;101561.97;;;13.92;50.13
59375;BME280;45172;55.006;73.460;2023-05-20T02:14:02;101558.44;;;13.93;51.08
59375;BME280;45172;55.006;73.460;2023-05-20T02:16:28;101567.69;;;14.10;50.66
59375;BME280;45172;55.006;73.460;2023-05-20T02:18:55;101560.88;;;14.27;50.69
59375;BME280;45172;55.006;73.460;2023-05-20T02:21:23;101562.88;;;14.37;49.91
59375;BME280;45172;55.006;73.460;2023-05-20T02:23:52;101560.38;;;14.48;49.37
59375;BME280;45172;55.006;73.460;2023-05-20T02:26:18;101556.13;;;14.58;49.07
59375;BME280;45172;55.006;73.460;2023-05-20T02:28:45;101561.59;;;14.64;49.06
59375;BME280;45172;55.006;73.460;2023-05-20T02:31:15;101562.84;;;14.83;49.33
59375;BME280;45172;55.006;73.460;2023-05-20T02:33:41;101563.13;;;15.00;48.30
59375;BME280;45172;55.006;73.460;2023-05-20T02:36:07;101557.09;;;15.12;48.07
59375;BME280;45172;55.006;73.460;2023-05-20T02:38:33;101560.00;;;15.28;47.44
59375;BME280;45172;55.006;73.460;2023-05-20T02:41:00;101556.56;;;15.35;47.01
59375;BME280;45172;55.006;73.460;2023-05-20T02:43:26;101555.84;;;15.47;47.03
59375;BME280;45172;55.006;73.460;2023-05-20T02:45:52;101556.09;;;15.64;46.72
59375;BME280;45172;55.006;73.460;2023-05-20T02:48:17;101554.34;;;15.69;45.89
59375;BME280;45172;55.006;73.460;2023-05-20T02:50:45;101552.66;;;15.74;45.79
59375;BME280;45172;55.006;73.460;2023-05-20T02:53:12;101549.25;;;15.86;46.00
59375;BME280;45172;55.006;73.460;2023-05-20T02:55:39;101552.94;;;15.95;44.33
59375;BME280;45172;55.006;73.460;2023-05-20T02:58:05;101545.97;;;16.06;44.66
59375;BME280;45172;55.006;73.460;2023-05-20T03:00:33;101545.16;;;16.12;44.99
59375;BME280;45172;55.006;73.460;2023-05-20T03:03:08;101550.72;;;16.32;44.15
59375;BME280;45172;55.006;73.460;2023-05-20T03:05:36;101549.78;;;16.28;44.05
59375;BME280;45172;55.006;73.460;2023-05-20T03:08:08;101548.09;;;16.40;44.37
59375;BME280;45172;55.006;73.460;2023-05-20T03:10:36;101547.41;;;16.60;42.12
59375;BME280;45172;55.006;73.460;2023-05-20T03:13:03;101550.16;;;16.66;42.79
59375;BME280;45172;55.006;73.460;2023-05-20T03:15:33;101550.31;;;16.83;42.39
59375;BME280;45172;55.006;73.460;2023-05-20T03:18:00;101548.63;;;16.94;41.60
59375;BME280;45172;55.006;73.460;2023-05-20T03:20:27;101541.53;;;17.00;41.67
59375;BME280;45172;55.006;73.460;2023-05-20T03:22:57;101538.03;;;17.02;40.75
59375;BME280;45172;55.006;73.460;2023-05-20T03:25:24;101539.00;;;17.15;40.55
59375;BME280;45172;55.006;73.460;2023-05-20T03:27:51;101538.19;;;17.29;40.54
59375;BME280;45172;55.006;73.460;2023-05-20T03:30:17;101532.91;;;17.38;41.19
59375;BME280;45172;55.006;73.460;2023-05-20T03:32:43;101527.63;;;17.55;42.04
59375;BME280;45172;55.006;73.460;2023-05-20T03:35:09;101525.94;;;17.68;40.86
59375;BME280;45172;55.006;73.460;2023-05-20T03:37:35;101510.78;;;17.83;40.82
59375;BME280;45172;55.006;73.460;2023-05-20T03:40:02;101514.41;;;18.02;39.75
59375;BME280;45172;55.006;73.460;2023-05-20T03:42:32;101507.34;;;18.07;38.87
59375;BME280;45172;55.006;73.460;2023-05-20T03:44:58;101512.66;;;18.04;38.21
59375;BME280;45172;55.006;73.460;2023-05-20T03:47:27;101518.06;;;18.13;38.59
59375;BME280;45172;55.006;73.460;2023-05-20T03:49:53;101516.31;;;18.21;38.29
59375;BME280;45172;55.006;73.460;2023-05-20T03:52:20;101498.47;;;18.31;36.87
59375;BME280;45172;55.006;73.460;2023-05-20T03:54:46;101496.66;;;18.47;36.61
59375;BME280;45172;55.006;73.460;2023-05-20T03:57:12;101488.66;;;18.57;37.05
59375;BME280;45172;55.006;73.460;2023-05-20T03:59:38;101488.66;;;18.71;36.17
59375;BME280;45172;55.006;73.460;2023-05-20T04:02:05;101497.59;;;18.84;35.09
59375;BME280;45172;55.006;73.460;2023-05-20T04:04:31;101494.00;;;18.79;35.40
59375;BME280;45172;55.006;73.460;2023-05-20T04:06:57;101492.22;;;18.95;36.13
59375;BME280;45172;55.006;73.460;2023-05-20T04:09:27;101489.50;;;19.13;35.57
59375;BME280;45172;55.006;73.460;2023-05-20T04:11:54;101489.50;;;19.20;34.71
59375;BME280;45172;55.006;73.460;2023-05-20T04:14:20;101486.81;;;19.24;34.83
59375;BME280;45172;55.006;73.460;2023-05-20T04:16:46;101480.53;;;19.33;33.72
59375;BME280;45172;55.006;73.460;2023-05-20T04:19:12;101472.41;;;19.49;34.84
59375;BME280;45172;55.006;73.460;2023-05-20T04:21:37;101475.06;;;19.61;33.64
59375;BME280;45172;55.006;73.460;2023-05-20T04:24:04;101469.69;;;19.60;31.59
59375;BME280;45172;55.006;73.460;2023-05-20T04:26:31;101473.22;;;19.74;31.71
59375;BME280;45172;55.006;73.460;2023-05-20T04:28:58;101474.03;;;19.87;31.69
59375;BME280;45172;55.006;73.460;2023-05-20T04:31:26;101464.16;;;19.95;31.00
59375;BME280;45172;55.006;73.460;2023-05-20T04:33:52;101477.56;;;20.08;30.22
59375;BME280;45172;55.006;73.460;2023-05-20T04:36:19;101467.69;;;20.02;29.15
59375;BME280;45172;55.006;73.460;2023-05-20T04:38:46;101457.88;;;19.93;29.96
59375;BME280;45172;55.006;73.460;2023-05-20T04:41:13;101465.06;;;19.91;30.65
59375;BME280;45172;55.006;73.460;2023-05-20T04:43:40;101465.91;;;20.03;29.71
59375;BME280;45172;55.006;73.460;2023-05-20T04:46:07;101456.94;;;20.07;29.92
59375;BME280;45172;55.006;73.460;2023-05-20T04:48:34;101466.66;;;20.26;30.06
59375;BME280;45172;55.006;73.460;2023-05-20T04:51:00;101465.63;;;20.45;28.39
59375;BME280;45172;55.006;73.460;2023-05-20T04:53:27;101454.78;;;20.57;28.64
59375;BME280;45172;55.006;73.460;2023-05-20T04:55:55;101460.97;;;20.64;29.16
59375;BME280;45172;55.006;73.460;2023-05-20T04:58:22;101464.44;;;20.78;30.03
59375;BME280;45172;55.006;73.460;2023-05-20T05:00:50;101460.78;;;20.92;29.91
59375;BME280;45172;55.006;73.460;2023-05-20T05:03:17;101455.47;;;20.78;29.07
59375;BME280;45172;55.006;73.460;2023-05-20T05:05:43;101447.34;;;20.87;29.35
59375;BME280;45172;55.006;73.460;2023-05-20T05:08:09;101428.59;;;20.73;27.88
59375;BME280;45172;55.006;73.460;2023-05-20T05:10:38;101441.97;;;20.83;28.38
59375;BME280;45172;55.006;73.460;2023-05-20T05:13:05;101433.06;;;20.77;27.07
59375;BME280;45172;55.006;73.460;2023-05-20T05:15:31;101436.53;;;20.90;26.73
59375;BME280;45172;55.006;73.460;2023-05-20T05:17:57;101431.84;;;21.08;27.75
59375;BME280;45172;55.006;73.460;2023-05-20T05:20:23;101436.28;;;21.15;28.14
59375;BME280;45172;55.006;73.460;2023-05-20T05:22:49;101435.22;;;21.27;27.97
59375;BME280;45172;55.006;73.460;2023-05-20T05:25:16;101429.03;;;21.22;28.29
59375;BME280;45172;55.006;73.460;2023-05-20T05:27:42;101424.75;;;21.04;28.05
59375;BME280;45172;55.006;73.460;2023-05-20T05:30:09;101422.84;;;21.11;28.12
59375;BME280;45172;55.006;73.460;2023-05-20T05:32:36;101425.31;;;21.32;28.25
59375;BME280;45172;55.006;73.460;2023-05-20T05:35:02;101409.00;;;21.42;28.06
59375;BME280;45172;55.006;73.460;2023-05-20T05:37:28;101419.78;;;21.43;28.17
59375;BME280;45172;55.006;73.460;2023-05-20T05:42:29;101417.91;;;21.48;27.80
59375;BME280;45172;55.006;73.460;2023-05-20T05:44:55;101411.47;;;21.60;28.07
59375;BME280;45172;55.006;73.460;2023-05-20T05:47:21;101413.09;;;21.74;27.30
59375;BME280;45172;55.006;73.460;2023-05-20T05:49:47;101404.00;;;21.83;27.95
59375;BME280;45172;55.006;73.460;2023-05-20T05:52:13;101396.75;;;21.88;27.79
59375;BME280;45172;55.006;73.460;2023-05-20T05:54:39;101397.53;;;21.93;27.98
59375;BME280;45172;55.006;73.460;2023-05-20T05:57:05;101395.50;;;22.09;28.40
59375;BME280;45172;55.006;73.460;2023-05-20T05:59:32;101396.28;;;22.16;28.15
59375;BME280;45172;55.006;73.460;2023-05-20T06:01:58;101397.06;;;22.24;27.72
59375;BME280;45172;55.006;73.460;2023-05-20T06:04:24;101396.19;;;22.24;27.98
59375;BME280;45172;55.006;73.460;2023-05-20T06:06:50;101394.34;;;22.24;28.53
59375;BME280;45172;55.006;73.460;2023-05-20T06:09:16;101385.38;;;22.24;27.87
59375;BME280;45172;55.006;73.460;2023-05-20T06:11:42;101379.25;;;22.12;28.03
59375;BME280;45172;55.006;73.460;2023-05-20T06:14:09;101389.94;;;22.20;28.83
59375;BME280;45172;55.006;73.460;2023-05-20T06:16:35;101389.94;;;22.19;27.72
59375;BME280;45172;55.006;73.460;2023-05-20T06:19:02;101376.63;;;22.08;28.19
59375;BME280;45172;55.006;73.460;2023-05-20T06:21:31;101382.03;;;22.09;28.06
59375;BME280;45172;55.006;73.460;2023-05-20T06:23:57;101375.94;;;21.95;28.76
59375;BME280;45172;55.006;73.460;2023-05-20T06:26:23;101374.94;;;22.00;29.04
59375;BME280;45172;55.006;73.460;2023-05-20T06:28:49;101361.28;;;22.13;28.74
59375;BME280;45172;55.006;73.460;2023-05-20T06:31:16;101347.63;;;22.21;28.85
59375;BME280;45172;55.006;73.460;2023-05-20T06:33:42;101372.81;;;22.23;28.84
59375;BME280;45172;55.006;73.460;2023-05-20T06:36:08;101377.03;;;22.38;28.03
59375;BME280;45172;55.006;73.460;2023-05-20T06:38:33;101353.75;;;22.32;27.87
59375;BME280;45172;55.006;73.460;2023-05-20T06:41:00;101358.81;;;22.52;27.98
59375;BME280;45172;55.006;73.460;2023-05-20T06:43:26;101353.44;;;22.51;28.07
59375;BME280;45172;55.006;73.460;2023-05-20T06:45:52;101359.94;;;22.37;27.93
59375;BME280;45172;55.006;73.460;2023-05-20T06:48:19;101367.81;;;22.50;28.15
59375;BME280;45172;55.006;73.460;2023-05-20T06:50:45;101357.03;;;22.53;28.17
59375;BME280;45172;55.006;73.460;2023-05-20T06:53:11;101342.44;;;22.62;27.72
59375;BME280;45172;55.006;73.460;2023-05-20T06:55:37;101340.75;;;22.57;27.31
59375;BME280;45172;55.006;73.460;2023-05-20T06:58:03;101340.78;;;22.54;28.48
59375;BME280;45172;55.006;73.460;2023-05-20T07:00:29;101330.97;;;22.50;27.44
59375;BME280;45172;55.006;73.460;2023-05-20T07:02:56;101341.69;;;22.53;27.93
59375;BME280;45172;55.006;73.460;2023-05-20T07:05:22;101339.81;;;22.58;28.18
59375;BME280;45172;55.006;73.460;2023-05-20T07:07:49;101340.56;;;22.67;27.67
59375;BME280;45172;55.006;73.460;2023-05-20T07:10:15;101331.50;;;22.69;27.72
59375;BME280;45172;55.006;73.460;2023-05-20T07:12:41;101330.19;;;22.89;27.92
59375;BME280;45172;55.006;73.460;2023-05-20T07:15:08;101330.81;;;23.04;26.94
59375;BME280;45172;55.006;73.460;2023-05-20T07:17:34;101322.47;;;23.15;27.14
59375;BME280;45172;55.006;73.460;2023-05-20T07:20:00;101318.88;;;23.14;26.71
59375;BME280;45172;55.006;73.460;2023-05-20T07:22:26;101321.63;;;23.12;27.41
59375;BME280;45172;55.006;73.460;2023-05-20T07:24:52;101323.28;;;23.20;27.31
59375;BME280;45172;55.006;73.460;2023-05-20T07:27:18;101322.41;;;23.18;27.76
59375;BME280;45172;55.006;73.460;2023-05-20T07:29:45;101316.69;;;23.33;27.38
59375;BME280;45172;55.006;73.460;2023-05-20T07:32:11;101312.91;;;23.42;27.26
59375;BME280;45172;55.006;73.460;2023-05-20T07:34:39;101314.44;;;23.54;27.98
59375;BME280;45172;55.006;73.460;2023-05-20T07:37:05;101323.78;;;23.78;27.42
59375;BME280;45172;55.006;73.460;2023-05-20T07:39:31;101308.38;;;23.80;26.72
59375;BME280;45172;55.006;73.460;2023-05-20T07:41:57;101299.50;;;23.75;26.13
59375;BME280;45172;55.006;73.460;2023-05-20T07:44:23;101311.94;;;23.83;26.72
59375;BME280;45172;55.006;73.460;2023-05-20T07:46:49;101295.66;;;23.86;26.33
59375;BME280;45172;55.006;73.460;2023-05-20T07:49:15;101296.47;;;23.89;26.03
59375;BME280;45172;55.006;73.460;2023-05-20T07:51:41;101296.63;;;23.81;25.75
59375;BME280;45172;55.006;73.460;2023-05-20T07:54:07;101291.06;;;23.88;25.90
59375;BME280;45172;55.006;73.460;2023-05-20T07:56:33;101291.38;;;23.75;26.18
59375;BME280;45172;55.006;73.460;2023-05-20T07:58:59;101289.44;;;23.82;26.58
59375;BME280;45172;55.006;73.460;2023-05-20T08:01:28;101284.69;;;23.92;26.82
59375;BME280;45172;55.006;73.460;2023-05-20T08:03:54;101276.06;;;23.74;26.37
59375;BME280;45172;55.006;73.460;2023-05-20T08:06:20;101276.16;;;23.71;26.09
59375;BME280;45172;55.006;73.460;2023-05-20T08:08:48;101287.59;;;23.83;26.30
59375;BME280;45172;55.006;73.460;2023-05-20T08:11:14;101288.38;;;23.88;26.42
59375;BME280;45172;55.006;73.460;2023-05-20T08:13:40;101278.38;;;23.91;26.08
59375;BME280;45172;55.006;73.460;2023-05-20T08:16:06;101279.25;;;23.92;26.98
59375;BME280;45172;55.006;73.460;2023-05-20T08:18:34;101263.13;;;23.87;26.02
59375;BME280;45172;55.006;73.460;2023-05-20T08:21:01;101258.34;;;23.99;26.07
59375;BME280;45172;55.006;73.460;2023-05-20T08:23:27;101249.16;;;24.06;26.18
59375;BME280;45172;55.006;73.460;2023-05-20T08:25:53;101259.47;;;24.25;26.58
59375;BME280;45172;55.006;73.460;2023-05-20T08:28:20;101256.63;;;24.29;26.37
59375;BME280;45172;55.006;73.460;2023-05-20T08:30:46;101252.31;;;24.22;26.10
59375;BME280;45172;55.006;73.460;2023-05-20T08:33:14;101254.97;;;24.25;25.99
59375;BME280;45172;55.006;73.460;2023-05-20T08:35:40;101251.59;;;24.17;26.20
59375;BME280;45172;55.006;73.460;2023-05-20T08:38:06;101248.13;;;24.10;26.31
59375;BME280;45172;55.006;73.460;2023-05-20T08:40:43;101252.38;;;24.20;24.88
59375;BME280;45172;55.006;73.460;2023-05-20T08:43:09;101244.16;;;24.24;26.01
59375;BME280;45172;55.006;73.460;2023-05-20T08:45:37;101246.06;;;24.20;25.38
59375;BME280;45172;55.006;73.460;2023-05-20T08:48:03;101228.03;;;24.20;25.44
59375;BME280;45172;55.006;73.460;2023-05-20T08:50:30;101230.38;;;24.33;26.16
59375;BME280;45172;55.006;73.460;2023-05-20T08:52:56;101231.00;;;24.43;26.26
59375;BME280;45172;55.006;73.460;2023-05-20T08:55:41;101217.19;;;24.52;25.69
59375;BME280;45172;55.006;73.460;2023-05-20T08:58:08;101225.94;;;24.62;25.43
59375;BME280;45172;55.006;73.460;2023-05-20T09:00:35;101227.88;;;24.57;25.36
59375;BME280;45172;55.006;73.460;2023-05-20T09:03:02;101210.00;;;24.51;25.86
59375;BME280;45172;55.006;73.460;2023-05-20T09:05:28;101217.06;;;24.57;25.81
59375;BME280;45172;55.006;73.460;2023-05-20T09:08:10;101213.97;;;24.39;25.48
59375;BME280;45172;55.006;73.460;2023-05-20T09:10:40;101205.47;;;24.53;25.58
59375;BME280;45172;55.006;73.460;2023-05-20T09:13:07;101222.94;;;24.71;26.08
59375;BME280;45172;55.006;73.460;2023-05-20T09:15:34;101220.09;;;24.46;25.67
59375;BME280;45172;55.006;73.460;2023-05-20T09:18:02;101225.59;;;24.11;25.86
59375;BME280;45172;55.006;73.460;2023-05-20T09:20:32;101219.38;;;23.71;26.03
59375;BME280;45172;55.006;73.460;2023-05-20T09:23:00;101221.69;;;23.50;26.45
59375;BME280;45172;55.006;73.460;2023-05-20T09:25:27;101224.03;;;23.64;25.96
59375;BME280;45172;55.006;73.460;2023-05-20T09:27:54;101216.00;;;23.96;26.83
59375;BME280;45172;55.006;73.460;2023-05-20T09:30:21;101209.34;;;24.11;25.34
59375;BME280;45172;55.006;73.460;2023-05-20T09:32:55;101216.53;;;24.12;26.22
59375;BME280;45172;55.006;73.460;2023-05-20T09:35:22;101219.84;;;24.22;25.97
59375;BME280;45172;55.006;73.460;2023-05-20T09:37:56;101212.50;;;24.27;24.93
59375;BME280;45172;55.006;73.460;2023-05-20T09:40:28;101206.78;;;24.38;24.98
59375;BME280;45172;55.006;73.460;2023-05-20T09:43:06;101199.19;;;24.51;25.23
59375;BME280;45172;55.006;73.460;2023-05-20T09:45:33;101213.06;;;24.70;25.74
59375;BME280;45172;55.006;73.460;2023-05-20T09:48:00;101203.81;;;24.77;24.71
59375;BME280;45172;55.006;73.460;2023-05-20T09:50:28;101205.28;;;24.89;25.39
59375;BME280;45172;55.006;73.460;2023-05-20T09:52:55;101196.94;;;24.66;25.29
59375;BME280;45172;55.006;73.460;2023-05-20T09:55:23;101202.50;;;24.61;25.36
59375;BME280;45172;55.006;73.460;2023-05-20T09:57:49;101222.28;;;24.63;25.17
59375;BME280;45172;55.006;73.460;2023-05-20T10:00:16;101204.56;;;24.53;25.80
59375;BME280;45172;55.006;73.460;2023-05-20T10:02:47;101191.66;;;24.61;25.95
59375;BME280;45172;55.006;73.460;2023-05-20T10:05:16;101204.72;;;24.46;25.41
59375;BME280;45172;55.006;73.460;2023-05-20T10:16:02;101197.28;;;24.23;25.72
59375;BME280;45172;55.006;73.460;2023-05-20T10:21:27;101193.75;;;24.51;25.61
59375;BME280;45172;55.006;73.460;2023-05-20T10:23:53;101184.66;;;24.54;24.84
59375;BME280;45172;55.006;73.460;2023-05-20T10:26:19;101197.19;;;24.58;24.74
59375;BME280;45172;55.006;73.460;2023-05-20T10:28:48;101193.59;;;24.57;23.64
59375;BME280;45172;55.006;73.460;2023-05-20T10:31:20;101198.44;;;24.46;23.70
59375;BME280;45172;55.006;73.460;2023-05-20T10:33:47;101177.81;;;24.40;23.99
59375;BME280;45172;55.006;73.460;2023-05-20T10:36:25;101187.84;;;24.37;23.38
59375;BME280;45172;55.006;73.460;2023-05-20T10:38:57;101187.47;;;24.51;24.10
59375;BME280;45172;55.006;73.460;2023-05-20T10:41:27;101175.25;;;24.67;23.36
59375;BME280;45172;55.006;73.460;2023-05-20T10:44:04;101170.38;;;24.79;23.53
59375;BME280;45172;55.006;73.460;2023-05-20T10:46:32;101168.41;;;24.85;23.22
59375;BME280;45172;55.006;73.460;2023-05-20T10:48:58;101171.41;;;24.74;24.28
59375;BME280;45172;55.006;73.460;2023-05-20T10:51:27;101172.22;;;24.78;23.79
59375;BME280;45172;55.006;73.460;2023-05-20T10:53:54;101175.75;;;24.82;23.45
59375;BME280;45172;55.006;73.460;2023-05-20T10:56:23;101162.78;;;24.61;23.69
59375;BME280;45172;55.006;73.460;2023-05-20T10:58:50;101155.38;;;24.67;23.65
59375;BME280;45172;55.006;73.460;2023-05-20T11:01:17;101150.53;;;24.78;24.27
59375;BME280;45172;55.006;73.460;2023-05-20T11:03:50;101152.47;;;25.03;24.50
59375;BME280;45172;55.006;73.460;2023-05-20T11:06:17;101149.28;;;25.19;23.49
59375;BME280;45172;55.006;73.460;2023-05-20T11:08:44;101154.19;;;25.34;23.17
59375;BME280;45172;55.006;73.460;2023-05-20T11:11:11;101153.28;;;25.34;23.42
59375;BME280;45172;55.006;73.460;2023-05-20T11:13:38;101155.22;;;25.30;23.46
59375;BME280;45172;55.006;73.460;2023-05-20T11:16:04;101146.94;;;25.06;23.69
59375;BME280;45172;55.006;73.460;2023-05-20T11:18:30;101154.66;;;24.92;24.38
59375;BME280;45172;55.006;73.460;2023-05-20T11:21:00;101154.59;;;24.93;24.39
59375;BME280;45172;55.006;73.460;2023-05-20T11:23:27;101152.78;;;24.63;24.11
59375;BME280;45172;55.006;73.460;2023-05-20T11:25:55;101152.78;;;24.33;23.53
59375;BME280;45172;55.006;73.460;2023-05-20T11:28:24;101150.38;;;24.23;23.77
59375;BME280;45172;55.006;73.460;2023-05-20T11:30:51;101151.00;;;24.32;23.07
59375;BME280;45172;55.006;73.460;2023-05-20T11:33:18;101136.97;;;24.49;24.39
59375;BME280;45172;55.006;73.460;2023-05-20T11:35:49;101142.56;;;24.73;22.66
59375;BME280;45172;55.006;73.460;2023-05-20T11:38:19;101143.72;;;24.95;23.11
59375;BME280;45172;55.006;73.460;2023-05-20T11:40:50;101142.75;;;24.97;23.12
59375;BME280;45172;55.006;73.460;2023-05-20T11:43:19;101146.44;;;24.95;23.39
59375;BME280;45172;55.006;73.460;2023-05-20T11:45:46;101149.25;;;24.92;22.85
59375;BME280;45172;55.006;73.460;2023-05-20T11:48:13;101148.56;;;24.83;22.63
59375;BME280;45172;55.006;73.460;2023-05-20T11:50:43;101148.00;;;24.72;22.78
59375;BME280;45172;55.006;73.460;2023-05-20T11:53:17;101146.59;;;24.58;23.29
59375;BME280;45172;55.006;73.460;2023-05-20T11:55:51;101161.19;;;24.23;23.37
59375;BME280;45172;55.006;73.460;2023-05-20T11:58:18;101151.38;;;23.85;23.97
59375;BME280;45172;55.006;73.460;2023-05-20T12:00:45;101149.53;;;23.52;24.73
59375;BME280;45172;55.006;73.460;2023-05-20T12:03:11;101148.31;;;23.28;24.43
59375;BME280;45172;55.006;73.460;2023-05-20T12:05:38;101158.72;;;23.07;24.28
59375;BME280;45172;55.006;73.460;2023-05-20T12:08:05;101158.59;;;23.12;25.28
59375;BME280;45172;55.006;73.460;2023-05-20T12:10:31;101161.25;;;23.15;24.76
59375;BME280;45172;55.006;73.460;2023-05-20T12:12:59;101148.63;;;23.14;25.17
59375;BME280;45172;55.006;73.460;2023-05-20T12:15:25;101150.53;;;23.10;24.77
59375;BME280;45172;55.006;73.460;2023-05-20T12:17:52;101148.13;;;22.99;25.22
59375;BME280;45172;55.006;73.460;2023-05-20T12:20:23;101149.88;;;23.01;24.72
59375;BME280;45172;55.006;73.460;2023-05-20T12:22:50;101141.53;;;23.11;24.92
59375;BME280;45172;55.006;73.460;2023-05-20T12:25:17;101139.91;;;23.03;24.92
59375;BME280;45172;55.006;73.460;2023-05-20T12:27:45;101142.72;;;22.98;25.47
59375;BME280;45172;55.006;73.460;2023-05-20T12:30:16;101138.75;;;23.13;24.98
59375;BME280;45172;55.006;73.460;2023-05-20T12:32:44;101142.94;;;23.26;24.17
59375;BME280;45172;55.006;73.460;2023-05-20T12:35:10;101139.91;;;23.40;25.30
59375;BME280;45172;55.006;73.460;2023-05-20T12:37:38;101146.22;;;23.41;24.37
59375;BME280;45172;55.006;73.460;2023-05-20T12:40:05;101147.00;;;23.46;24.31
59375;BME280;45172;55.006;73.460;2023-05-20T12:42:34;101146.91;;;23.49;24.42
59375;BME280;45172;55.006;73.460;2023-05-20T12:45:00;101149.63;;;23.48;24.13
59375;BME280;45172;55.006;73.460;2023-05-20T12:47:26;101151.50;;;23.46;24.38
59375;BME280;45172;55.006;73.460;2023-05-20T12:49:53;101155.53;;;23.27;24.02
59375;BME280;45172;55.006;73.460;2023-05-20T12:52:19;101155.53;;;23.29;24.98
59375;BME280;45172;55.006;73.460;2023-05-20T12:54:45;101159.97;;;23.32;24.83